createdAt,value
2018-03-31T00:00:43.168Z,17.92
2018-03-31T00:03:09.762Z,15.85
2018-03-31T00:05:36.283Z,15.75
2018-03-31T00:08:02.846Z,16.23
2018-03-31T00:10:29.361Z,15.77
2018-03-31T00:12:55.919Z,16.25
2018-03-31T00:15:22.451Z,15.48
2018-03-31T00:17:48.979Z,16.05
2018-03-31T00:20:15.541Z,14.80
2018-03-31T00:22:42.070Z,16.30
2018-03-31T00:25:08.646Z,14.85
2018-03-31T00:27:35.223Z,14.38
2018-03-31T00:30:01.749Z,14.35
2018-03-31T00:32:28.284Z,14.73
2018-03-31T00:34:54.848Z,14.73
2018-03-31T00:37:21.377Z,15.75
2018-03-31T00:39:47.917Z,15.43
2018-03-31T00:42:14.482Z,17.20
2018-03-31T00:44:41.011Z,15.02
2018-03-31T00:47:07.587Z,14.87
2018-03-31T00:49:34.123Z,15.55
2018-03-31T00:52:00.687Z,15.40
2018-03-31T00:54:27.215Z,14.57
2018-03-31T00:56:53.774Z,15.77
2018-03-31T00:59:20.336Z,16.58
2018-03-31T01:01:46.868Z,16.58
2018-03-31T01:04:13.456Z,15.07
2018-03-31T01:06:40.001Z,15.55
2018-03-31T01:09:06.533Z,14.40
2018-03-31T01:11:33.058Z,15.68
2018-03-31T01:13:59.622Z,15.23
2018-03-31T01:16:26.156Z,15.82
2018-03-31T01:18:52.684Z,15.55
2018-03-31T01:21:19.254Z,16.27
2018-03-31T01:23:45.791Z,15.10
2018-03-31T01:26:12.356Z,14.80
2018-03-31T01:28:38.893Z,15.40
2018-03-31T01:31:05.461Z,15.70
2018-03-31T01:33:31.993Z,13.70
2018-03-31T01:35:58.546Z,15.00
2018-03-31T01:38:25.092Z,15.68
2018-03-31T01:40:51.610Z,15.48
2018-03-31T01:43:18.126Z,14.23
2018-03-31T01:45:44.650Z,14.30
2018-03-31T01:48:11.208Z,16.02
2018-03-31T01:50:37.771Z,16.17
2018-03-31T01:53:04.348Z,15.32
2018-03-31T01:55:30.879Z,14.82
2018-03-31T01:57:57.425Z,15.55
2018-03-31T02:00:23.962Z,15.05
2018-03-31T02:02:50.544Z,16.25
2018-03-31T02:05:17.131Z,17.83
2018-03-31T02:07:43.691Z,16.30
2018-03-31T02:10:10.266Z,15.60
2018-03-31T02:12:36.786Z,16.62
2018-03-31T02:15:03.310Z,17.60
2018-03-31T02:17:29.843Z,16.30
2018-03-31T02:19:56.365Z,15.43
2018-03-31T02:22:22.914Z,16.30
2018-03-31T02:24:49.462Z,15.73
2018-03-31T02:27:16.033Z,16.15
2018-03-31T02:29:42.557Z,17.08
2018-03-31T02:32:09.131Z,15.35
2018-03-31T02:34:35.669Z,16.87
2018-03-31T02:37:02.219Z,15.63
2018-03-31T02:39:28.755Z,16.65
2018-03-31T02:41:55.291Z,16.02
2018-03-31T02:44:21.856Z,16.30
2018-03-31T02:46:48.392Z,16.05
2018-03-31T02:49:14.951Z,16.25
2018-03-31T02:51:41.487Z,15.57
2018-03-31T02:54:08.055Z,16.80
2018-03-31T02:56:34.588Z,17.20
2018-03-31T02:59:01.120Z,16.87
2018-03-31T03:01:27.659Z,19.42
2018-03-31T03:03:54.187Z,16.50
2018-03-31T03:06:20.753Z,16.40
2018-03-31T03:08:47.325Z,17.92
2018-03-31T03:11:13.898Z,16.17
2018-03-31T03:13:40.429Z,18.27
2018-03-31T03:16:06.963Z,18.90
2018-03-31T03:18:33.499Z,17.12
2018-03-31T03:21:00.042Z,19.15
2018-03-31T03:23:26.610Z,18.33
2018-03-31T03:25:53.163Z,17.73
2018-03-31T03:28:19.727Z,17.37
2018-03-31T03:30:46.291Z,17.95
2018-03-31T03:33:12.824Z,17.37
2018-03-31T03:35:39.348Z,15.45
2018-03-31T03:38:05.878Z,18.98
2018-03-31T03:40:32.454Z,18.33
2018-03-31T03:42:58.978Z,19.35
2018-03-31T03:45:25.508Z,18.90
2018-03-31T03:47:52.034Z,18.95
2018-03-31T03:50:18.603Z,17.60
2018-03-31T03:52:45.134Z,17.42
2018-03-31T03:55:11.694Z,19.67
2018-03-31T03:57:38.287Z,17.10
2018-03-31T04:00:04.830Z,18.85
2018-03-31T04:02:31.346Z,18.00
2018-03-31T04:04:57.879Z,18.15
2018-03-31T04:07:24.427Z,19.83
2018-03-31T04:09:50.963Z,20.73
2018-03-31T04:12:17.490Z,20.85
2018-03-31T04:14:44.061Z,18.37
2018-03-31T04:17:10.583Z,19.35
2018-03-31T04:19:37.147Z,19.60
2018-03-31T04:22:03.674Z,21.00
2018-03-31T04:24:30.196Z,19.40
2018-03-31T04:26:56.733Z,19.87
2018-03-31T04:29:23.263Z,19.80
2018-03-31T04:31:49.889Z,21.48
2018-03-31T04:34:16.417Z,20.95
2018-03-31T04:36:42.964Z,20.12
2018-03-31T04:39:09.518Z,22.42
2018-03-31T04:41:36.107Z,24.05
2018-03-31T04:44:02.629Z,20.92
2018-03-31T04:46:29.151Z,22.87
2018-03-31T04:48:55.731Z,21.58
2018-03-31T04:51:22.264Z,21.37
2018-03-31T04:53:48.787Z,21.77
2018-03-31T04:56:15.312Z,22.02
2018-03-31T04:58:41.843Z,20.65
2018-03-31T05:01:08.374Z,21.05
2018-03-31T05:03:34.931Z,21.12
2018-03-31T05:06:01.486Z,23.02
2018-03-31T05:08:28.009Z,22.67
2018-03-31T05:10:54.577Z,22.83
2018-03-31T05:13:21.118Z,23.50
2018-03-31T05:15:47.654Z,22.50
2018-03-31T05:18:14.187Z,24.20
2018-03-31T05:20:40.721Z,23.50
2018-03-31T05:23:07.263Z,22.58
2018-03-31T05:25:33.807Z,22.73
2018-03-31T05:28:00.330Z,23.73
2018-03-31T05:30:26.853Z,26.25
2018-03-31T05:32:53.400Z,23.95
2018-03-31T05:35:19.926Z,24.70
2018-03-31T05:37:46.452Z,23.27
2018-03-31T05:40:12.995Z,24.17
2018-03-31T05:42:39.587Z,25.58
2018-03-31T05:45:06.127Z,24.95
2018-03-31T05:47:32.698Z,23.98
2018-03-31T05:49:59.230Z,25.90
2018-03-31T05:52:25.773Z,21.83
2018-03-31T05:54:52.297Z,23.50
2018-03-31T05:57:18.893Z,22.15
2018-03-31T05:59:45.424Z,25.00
2018-03-31T06:02:11.949Z,25.62
2018-03-31T06:04:38.511Z,23.83
2018-03-31T06:07:05.037Z,22.58
2018-03-31T06:09:31.565Z,22.62
2018-03-31T06:11:58.187Z,23.62
2018-03-31T06:14:24.715Z,21.70
2018-03-31T06:16:51.251Z,23.87
2018-03-31T06:19:17.803Z,23.85
2018-03-31T06:21:44.335Z,24.73
2018-03-31T06:24:10.881Z,25.08
2018-03-31T06:26:37.424Z,24.33
2018-03-31T06:29:03.950Z,23.85
2018-03-31T06:31:30.477Z,22.30
2018-03-31T06:33:57.010Z,24.85
2018-03-31T06:36:23.561Z,22.80
2018-03-31T06:38:50.119Z,23.38
2018-03-31T06:41:16.648Z,22.70
2018-03-31T06:43:43.218Z,24.05
2018-03-31T06:46:09.744Z,24.65
2018-03-31T06:48:36.270Z,25.40
2018-03-31T06:51:02.800Z,24.20
2018-03-31T06:53:29.366Z,24.58
2018-03-31T06:55:55.890Z,23.27
2018-03-31T06:58:22.456Z,25.35
2018-03-31T07:00:48.988Z,24.90
2018-03-31T07:03:15.568Z,25.12
2018-03-31T07:05:42.097Z,24.60
2018-03-31T07:08:08.662Z,22.58
2018-03-31T07:10:35.246Z,23.75
2018-03-31T07:13:01.785Z,24.40
2018-03-31T07:15:28.347Z,23.92
2018-03-31T07:17:54.874Z,24.55
2018-03-31T07:20:21.456Z,23.30
2018-03-31T07:22:48.016Z,23.70
2018-03-31T07:25:14.708Z,23.73
2018-03-31T07:27:41.283Z,23.50
2018-03-31T07:30:07.819Z,23.45
2018-03-31T07:32:34.387Z,23.58
2018-03-31T07:35:00.915Z,23.73
2018-03-31T07:37:27.516Z,23.70
2018-03-31T07:39:54.085Z,23.83
2018-03-31T07:42:20.601Z,22.23
2018-03-31T07:44:47.166Z,21.95
2018-03-31T07:47:13.691Z,22.83
2018-03-31T07:49:40.242Z,23.87
2018-03-31T07:52:06.806Z,24.80
2018-03-31T07:54:33.390Z,22.83
2018-03-31T07:56:59.944Z,21.27
2018-03-31T07:59:26.466Z,23.35
2018-03-31T08:01:53.008Z,22.62
2018-03-31T08:04:19.555Z,23.35
2018-03-31T08:06:46.091Z,22.73
2018-03-31T08:09:12.614Z,22.90
2018-03-31T08:11:39.185Z,23.77
2018-03-31T08:14:05.706Z,23.90
2018-03-31T08:16:32.282Z,23.48
2018-03-31T08:18:58.814Z,24.00
2018-03-31T08:21:25.380Z,22.00
2018-03-31T08:23:51.947Z,23.80
2018-03-31T08:26:18.481Z,22.58
2018-03-31T08:28:45.048Z,22.80
2018-03-31T08:31:11.579Z,23.00
2018-03-31T08:33:38.104Z,22.50
2018-03-31T08:36:04.633Z,23.17
2018-03-31T08:38:31.161Z,24.40
2018-03-31T08:40:57.715Z,27.13
2018-03-31T08:43:24.244Z,24.27
2018-03-31T08:45:50.758Z,23.02
2018-03-31T08:48:17.296Z,25.73
2018-03-31T08:50:43.858Z,23.85
2018-03-31T08:53:10.396Z,23.10
2018-03-31T08:55:36.958Z,23.60
2018-03-31T08:58:03.483Z,24.02
2018-03-31T09:00:30.018Z,23.98
2018-03-31T09:02:56.585Z,22.30
2018-03-31T09:05:23.112Z,22.37
2018-03-31T09:07:49.719Z,21.58
2018-03-31T09:10:16.272Z,22.90
2018-03-31T09:12:42.848Z,22.30
2018-03-31T09:15:09.425Z,21.70
2018-03-31T09:17:35.971Z,24.12
2018-03-31T09:20:02.495Z,23.62
2018-03-31T09:22:29.051Z,22.87
2018-03-31T09:24:55.622Z,22.60
2018-03-31T09:27:22.154Z,22.55
2018-03-31T09:29:48.691Z,22.02
2018-03-31T09:32:15.217Z,21.87
2018-03-31T09:34:41.787Z,23.23
2018-03-31T09:37:08.314Z,23.23
2018-03-31T09:39:34.899Z,21.67
2018-03-31T09:42:01.419Z,23.05
2018-03-31T09:44:27.966Z,22.70
2018-03-31T09:46:54.535Z,20.98
2018-03-31T09:49:21.068Z,22.45
2018-03-31T09:51:47.626Z,22.30
2018-03-31T09:54:14.195Z,22.50
2018-03-31T09:56:40.748Z,20.92
2018-03-31T09:59:07.306Z,22.20
2018-03-31T10:01:33.835Z,21.30
2018-03-31T10:04:00.414Z,20.67
2018-03-31T10:06:26.978Z,22.85
2018-03-31T10:08:53.542Z,22.13
2018-03-31T10:11:20.073Z,23.33
2018-03-31T10:13:46.634Z,22.30
2018-03-31T10:16:13.169Z,22.73
2018-03-31T10:18:39.755Z,21.73
2018-03-31T10:21:06.318Z,23.05
2018-03-31T10:23:32.853Z,23.30
2018-03-31T10:25:59.381Z,22.62
2018-03-31T10:28:25.913Z,22.40
2018-03-31T10:30:52.486Z,21.40
2018-03-31T10:33:19.029Z,22.67
2018-03-31T10:35:45.590Z,22.48
2018-03-31T10:38:12.112Z,24.05
2018-03-31T10:40:38.693Z,21.60
2018-03-31T10:43:05.232Z,22.58
2018-03-31T10:45:31.805Z,22.80
2018-03-31T10:47:58.344Z,21.02
2018-03-31T10:50:24.865Z,22.00
2018-03-31T10:52:51.442Z,21.67
2018-03-31T10:55:17.983Z,21.75
2018-03-31T10:57:44.502Z,20.83
2018-03-31T11:00:11.068Z,18.98
2018-03-31T11:02:37.606Z,19.73
2018-03-31T11:05:04.174Z,20.17
2018-03-31T11:07:30.703Z,19.58
2018-03-31T11:09:57.292Z,20.62
2018-03-31T11:12:23.833Z,22.13
2018-03-31T11:14:50.371Z,19.85
2018-03-31T11:17:16.894Z,21.00
2018-03-31T11:19:43.467Z,20.70
2018-03-31T11:22:10.035Z,19.77
2018-03-31T11:24:36.895Z,20.00
2018-03-31T11:27:03.431Z,20.55
2018-03-31T11:29:29.956Z,19.20
2018-03-31T11:31:56.527Z,20.35
2018-03-31T11:34:23.061Z,19.87
2018-03-31T11:36:49.629Z,19.40
2018-03-31T11:39:16.159Z,19.58
2018-03-31T11:41:42.698Z,19.05
2018-03-31T11:44:09.217Z,18.25
2018-03-31T11:46:35.754Z,19.98
2018-03-31T11:49:02.282Z,20.10
2018-03-31T11:51:28.848Z,17.55
2018-03-31T11:53:55.419Z,17.17
2018-03-31T11:56:21.948Z,18.27
2018-03-31T11:58:48.479Z,16.87
2018-03-31T12:01:15.009Z,17.62
2018-03-31T12:03:41.537Z,14.82
2018-03-31T12:06:08.099Z,16.45
2018-03-31T12:08:34.647Z,14.70
2018-03-31T12:11:01.182Z,15.88
2018-03-31T12:13:27.720Z,15.70
2018-03-31T12:15:54.276Z,16.60
2018-03-31T12:18:20.797Z,15.77
2018-03-31T12:20:47.369Z,16.02
2018-03-31T12:23:13.918Z,15.10
2018-03-31T12:25:40.465Z,16.33
2018-03-31T12:28:07.045Z,16.85
2018-03-31T12:30:33.604Z,16.98
2018-03-31T12:33:00.145Z,16.62
2018-03-31T12:35:26.682Z,17.12
2018-03-31T12:37:53.210Z,17.30
2018-03-31T12:40:19.768Z,16.55
2018-03-31T12:42:46.293Z,17.10
2018-03-31T12:45:12.818Z,14.82
2018-03-31T12:47:39.338Z,14.75
2018-03-31T12:50:05.896Z,15.65
2018-03-31T12:52:32.430Z,15.18
2018-03-31T12:54:58.957Z,14.68
2018-03-31T12:57:25.483Z,16.15
2018-03-31T12:59:52.009Z,14.52
2018-03-31T13:02:18.577Z,15.48
2018-03-31T13:04:45.106Z,13.80
2018-03-31T13:07:11.633Z,13.75
2018-03-31T13:09:38.164Z,13.38
2018-03-31T13:12:04.680Z,12.00
2018-03-31T13:14:31.216Z,12.55
2018-03-31T13:16:57.766Z,12.95
2018-03-31T13:19:24.290Z,11.70
2018-03-31T13:21:50.831Z,10.82
2018-03-31T13:24:17.405Z,11.35
2018-03-31T13:26:43.939Z,11.88
2018-03-31T13:29:10.553Z,11.80
2018-03-31T13:31:37.098Z,11.70
2018-03-31T13:34:03.665Z,10.95
2018-03-31T13:36:30.203Z,10.80
2018-03-31T13:38:56.743Z,11.88
2018-03-31T13:41:23.296Z,10.45
2018-03-31T13:43:49.823Z,10.63
2018-03-31T13:46:16.414Z,11.32
2018-03-31T13:48:42.957Z,11.15
2018-03-31T13:51:09.487Z,10.88
2018-03-31T13:53:36.010Z,11.32
2018-03-31T13:56:02.537Z,12.60
2018-03-31T13:58:29.064Z,12.43
2018-03-31T14:00:55.595Z,12.90
2018-03-31T14:03:22.123Z,14.05
2018-03-31T14:05:48.650Z,14.23
2018-03-31T14:08:15.182Z,13.73
2018-03-31T14:10:41.727Z,15.02
2018-03-31T14:13:08.263Z,13.13
2018-03-31T14:15:34.850Z,12.90
2018-03-31T14:18:01.376Z,13.23
2018-03-31T14:20:27.902Z,12.57
2018-03-31T14:22:54.482Z,13.25
2018-03-31T14:25:21.016Z,12.45
2018-03-31T14:27:47.544Z,14.32
2018-03-31T14:30:14.141Z,13.65
2018-03-31T14:32:40.710Z,13.85
2018-03-31T14:35:07.274Z,13.27
2018-03-31T14:37:33.812Z,13.43
2018-03-31T14:40:00.375Z,14.43
2018-03-31T14:42:26.906Z,13.60
2018-03-31T14:44:53.462Z,13.25
2018-03-31T14:47:19.984Z,14.43
2018-03-31T14:49:46.547Z,13.40
2018-03-31T14:52:13.125Z,14.87
2018-03-31T14:54:39.666Z,13.27
2018-03-31T14:57:06.224Z,14.95
2018-03-31T14:59:32.808Z,15.75
2018-03-31T15:01:59.363Z,15.20
2018-03-31T15:04:25.902Z,13.73
2018-03-31T15:06:52.475Z,14.93
2018-03-31T15:09:19.011Z,14.48
2018-03-31T15:11:45.543Z,13.93
2018-03-31T15:14:12.063Z,14.70
2018-03-31T15:16:38.592Z,13.48
2018-03-31T15:19:05.242Z,13.25
2018-03-31T15:21:31.779Z,14.55
2018-03-31T15:23:58.384Z,14.30
2018-03-31T15:26:24.916Z,15.50
2018-03-31T15:28:51.452Z,14.25
2018-03-31T15:31:18.056Z,14.63
2018-03-31T15:33:44.626Z,14.40
2018-03-31T15:36:11.158Z,14.32
2018-03-31T15:38:37.758Z,12.50
2018-03-31T15:41:04.331Z,12.48
2018-03-31T15:43:30.857Z,12.75
2018-03-31T15:45:57.379Z,15.95
2018-03-31T15:48:23.907Z,33.20
2018-03-31T15:50:50.464Z,14.85
2018-03-31T15:53:17.452Z,15.48
2018-03-31T15:55:44.368Z,15.02
2018-03-31T15:58:10.945Z,14.50
2018-03-31T16:00:37.595Z,14.50
2018-03-31T16:03:04.169Z,13.73
2018-03-31T16:05:30.734Z,14.38
2018-03-31T16:07:57.346Z,14.02
2018-03-31T16:10:23.866Z,15.13
2018-03-31T16:12:50.422Z,14.82
2018-03-31T16:15:16.946Z,14.77
2018-03-31T16:17:43.519Z,14.10
2018-03-31T16:20:10.163Z,13.50
2018-03-31T16:22:36.699Z,13.88
2018-03-31T16:25:03.334Z,13.90
2018-03-31T16:27:29.830Z,12.80
2018-03-31T16:29:56.412Z,14.10
2018-03-31T16:32:22.943Z,13.85
2018-03-31T16:34:49.479Z,16.58
2018-03-31T16:37:16.015Z,15.15
2018-03-31T16:39:42.579Z,21.87
2018-03-31T16:42:09.095Z,23.45
2018-03-31T16:44:35.672Z,31.73
2018-03-31T16:47:02.232Z,39.83
2018-03-31T16:49:28.777Z,38.22
2018-03-31T16:51:55.344Z,26.98
2018-03-31T16:54:21.904Z,21.98
2018-03-31T16:56:48.468Z,23.10
2018-03-31T16:59:14.996Z,46.25
2018-03-31T17:01:41.556Z,51.08
2018-03-31T17:04:08.832Z,46.33
2018-03-31T17:06:35.405Z,47.00
2018-03-31T17:09:01.980Z,44.88
2018-03-31T17:11:28.511Z,49.95
2018-03-31T17:13:55.072Z,33.85
2018-03-31T17:16:21.602Z,26.87
2018-03-31T17:18:48.141Z,22.05
2018-03-31T17:21:14.674Z,38.15
2018-03-31T17:23:41.214Z,60.12
2018-03-31T17:26:08.237Z,54.63
2018-03-31T17:28:34.945Z,60.40
2018-03-31T17:31:01.506Z,58.15
2018-03-31T17:33:28.043Z,51.28
2018-03-31T17:35:56.019Z,54.75
2018-03-31T17:38:22.953Z,74.90
2018-03-31T17:40:52.089Z,38.88
2018-03-31T17:43:18.720Z,62.08
2018-03-31T17:45:45.324Z,44.15
2018-03-31T17:48:11.930Z,37.20
2018-03-31T17:50:38.511Z,36.70
2018-03-31T17:53:05.068Z,42.60
2018-03-31T17:55:31.600Z,39.40
2018-03-31T17:57:58.247Z,45.60
2018-03-31T18:00:24.827Z,41.03
2018-03-31T18:02:51.420Z,27.10
2018-03-31T18:05:18.004Z,24.10
2018-03-31T18:07:44.570Z,25.27
2018-03-31T18:10:11.147Z,26.02
2018-03-31T18:12:37.736Z,19.55
2018-03-31T18:15:04.392Z,17.55
2018-03-31T18:17:31.103Z,15.10
2018-03-31T18:19:57.802Z,16.98
2018-03-31T18:22:24.403Z,16.05
2018-03-31T18:24:50.982Z,13.80
2018-03-31T18:27:17.634Z,14.85
2018-03-31T18:29:44.299Z,13.95
2018-03-31T18:32:11.080Z,15.70
2018-03-31T18:34:37.717Z,17.50
2018-03-31T18:37:04.382Z,18.50
2018-03-31T18:39:31.079Z,21.65
2018-03-31T18:41:57.700Z,30.17
2018-03-31T18:44:24.290Z,30.67
2018-03-31T18:46:50.891Z,35.20
2018-03-31T18:49:17.472Z,42.28
2018-03-31T18:51:44.078Z,35.50
2018-03-31T18:54:10.619Z,31.58
2018-03-31T18:56:37.158Z,34.35
2018-03-31T18:59:03.678Z,38.85
2018-03-31T19:01:30.212Z,35.88
2018-03-31T19:03:56.784Z,36.47
2018-03-31T19:06:23.314Z,36.42
2018-03-31T19:08:49.913Z,39.40
2018-03-31T19:11:16.474Z,36.47
2018-03-31T19:13:42.994Z,40.53
2018-03-31T19:16:09.545Z,35.63
2018-03-31T19:18:36.102Z,33.00
2018-03-31T19:21:02.682Z,32.00
2018-03-31T19:23:29.205Z,32.58
2018-03-31T19:25:55.770Z,32.92
2018-03-31T19:28:22.298Z,31.70
2018-03-31T19:30:49.831Z,27.30
2018-03-31T19:33:16.422Z,25.65
2018-03-31T19:35:48.679Z,27.02
2018-03-31T19:38:15.262Z,27.55
2018-03-31T19:40:41.803Z,28.12
2018-03-31T19:43:08.368Z,24.75
2018-03-31T19:45:34.938Z,22.02
2018-03-31T19:48:01.469Z,21.85
2018-03-31T19:50:28.017Z,20.08
2018-03-31T19:52:54.593Z,18.75
2018-03-31T19:55:21.122Z,20.83
2018-03-31T19:57:47.666Z,20.05
2018-03-31T20:00:14.202Z,19.75
2018-03-31T20:02:40.799Z,19.75
2018-03-31T20:05:07.356Z,19.98
2018-03-31T20:07:33.892Z,22.23
2018-03-31T20:10:00.479Z,21.45
2018-03-31T20:12:27.003Z,19.12
2018-03-31T20:14:53.614Z,21.17
2018-03-31T20:17:20.142Z,21.48
2018-03-31T20:19:46.687Z,22.62
2018-03-31T20:22:13.210Z,20.75
2018-03-31T20:24:39.729Z,20.55
2018-03-31T20:27:06.280Z,21.58
2018-03-31T20:29:32.820Z,24.58
2018-03-31T20:31:59.410Z,23.83
2018-03-31T20:34:25.954Z,25.37
2018-03-31T20:36:52.513Z,18.02
2018-03-31T20:39:19.052Z,18.85
2018-03-31T20:41:45.625Z,16.95
2018-03-31T20:44:12.242Z,15.52
2018-03-31T20:46:38.817Z,17.83
2018-03-31T20:49:05.464Z,17.95
2018-03-31T20:51:31.998Z,17.70
2018-03-31T20:53:58.582Z,18.45
2018-03-31T20:56:25.111Z,16.73
2018-03-31T20:58:51.729Z,18.42
2018-03-31T21:01:18.299Z,16.33
2018-03-31T21:03:44.849Z,16.33
2018-03-31T21:06:11.376Z,17.37
2018-03-31T21:08:37.903Z,16.27
2018-03-31T21:11:04.532Z,17.92
2018-03-31T21:13:31.064Z,18.90
2018-03-31T21:15:57.637Z,20.70
2018-03-31T21:18:24.188Z,21.30
2018-03-31T21:20:50.728Z,22.70
2018-03-31T21:23:17.247Z,24.67
2018-03-31T21:25:43.796Z,25.40
2018-03-31T21:28:10.325Z,23.67
2018-03-31T21:30:36.857Z,23.87
2018-03-31T21:33:03.431Z,22.70
2018-03-31T21:35:29.985Z,21.85
2018-03-31T21:37:56.563Z,19.98
2018-03-31T21:40:23.087Z,20.17
2018-03-31T21:42:49.617Z,19.17
2018-03-31T21:45:16.329Z,20.02
2018-03-31T21:47:42.923Z,21.35
2018-03-31T21:50:09.475Z,23.40
2018-03-31T21:52:36.110Z,23.77
2018-03-31T21:55:02.658Z,24.58
2018-03-31T21:57:29.222Z,26.60
2018-03-31T21:59:55.756Z,25.70
2018-03-31T22:02:22.278Z,23.40
2018-03-31T22:04:48.814Z,25.60
2018-03-31T22:07:15.362Z,26.42
2018-03-31T22:09:41.914Z,26.58
2018-03-31T22:12:08.444Z,27.40
2018-03-31T22:14:40.808Z,27.02
2018-03-31T22:17:07.336Z,26.40
2018-03-31T22:19:33.897Z,28.08
2018-03-31T22:22:00.438Z,27.73
2018-03-31T22:24:26.974Z,27.92
2018-03-31T22:26:53.504Z,28.80
2018-03-31T22:29:20.019Z,27.55
2018-03-31T22:31:46.562Z,28.92
2018-03-31T22:34:13.082Z,31.42
2018-03-31T22:36:39.644Z,28.25
2018-03-31T22:39:06.206Z,30.85
2018-03-31T22:41:32.808Z,30.52
2018-03-31T22:43:59.321Z,32.03
2018-03-31T22:46:25.847Z,29.67
2018-03-31T22:48:52.403Z,32.13
2018-03-31T22:51:18.937Z,31.30
2018-03-31T22:53:45.496Z,30.17
2018-03-31T22:56:12.191Z,29.15
2018-03-31T22:58:38.755Z,28.08
2018-03-31T23:01:05.358Z,28.92
2018-03-31T23:03:32.716Z,28.90
2018-03-31T23:05:59.240Z,31.20
2018-03-31T23:08:25.766Z,31.37
2018-03-31T23:10:52.321Z,31.08
2018-03-31T23:13:18.880Z,35.70
2018-03-31T23:15:45.452Z,33.75
2018-03-31T23:18:11.982Z,32.17
2018-03-31T23:20:38.556Z,32.35
2018-03-31T23:23:05.380Z,29.55
2018-03-31T23:25:31.911Z,30.02
2018-03-31T23:27:58.430Z,32.80
2018-03-31T23:30:24.958Z,33.95
2018-03-31T23:32:51.491Z,34.08
2018-03-31T23:35:18.046Z,37.83
2018-03-31T23:37:44.604Z,40.25
2018-03-31T23:40:11.122Z,39.60
2018-03-31T23:42:37.726Z,40.40
2018-03-31T23:45:04.254Z,40.65
2018-03-31T23:47:30.784Z,36.88
2018-03-31T23:49:57.312Z,39.90
2018-03-31T23:52:23.873Z,42.33
2018-03-31T23:54:50.445Z,39.65
2018-03-31T23:57:16.995Z,41.90
2018-03-31T23:59:43.517Z,40.95
